sensor_id;sensor_type;location;lat;lon;timestamp;P1;durP1;ratioP1;P2;durP2;ratioP2
71423;SDS011;59240;51.370;-0.486;2022-10-22T00:01:00;25.67;;;3.72;;
71423;SDS011;59240;51.370;-0.486;2022-10-22T00:03:27;18.00;;;3.42;;
71423;SDS011;59240;51.370;-0.486;2022-10-22T00:05:53;26.17;;;3.70;;
71423;SDS011;59240;51.370;-0.486;2022-10-22T00:08:20;36.63;;;4.35;;
71423;SDS011;59240;51.370;-0.486;2022-10-22T00:10:47;31.60;;;4.85;;
71423;SDS011;59240;51.370;-0.486;2022-10-22T00:13:13;31.65;;;5.07;;
71423;SDS011;59240;51.370;-0.486;2022-10-22T00:15:40;24.08;;;4.57;;
71423;SDS011;59240;51.370;-0.486;2022-10-22T00:18:07;24.98;;;5.22;;
71423;SDS011;59240;51.370;-0.486;2022-10-22T00:20:33;33.20;;;5.30;;
71423;SDS011;59240;51.370;-0.486;2022-10-22T00:23:00;36.55;;;5.45;;
71423;SDS011;59240;51.370;-0.486;2022-10-22T00:25:26;34.42;;;4.60;;
71423;SDS011;59240;51.370;-0.486;2022-10-22T00:27:53;29.58;;;4.40;;
71423;SDS011;59240;51.370;-0.486;2022-10-22T00:30:20;25.70;;;3.40;;
71423;SDS011;59240;51.370;-0.486;2022-10-22T00:32:46;26.13;;;4.05;;
71423;SDS011;59240;51.370;-0.486;2022-10-22T00:35:13;37.92;;;4.18;;
71423;SDS011;59240;51.370;-0.486;2022-10-22T00:37:39;28.40;;;4.25;;
71423;SDS011;59240;51.370;-0.486;2022-10-22T00:40:06;27.35;;;4.07;;
71423;SDS011;59240;51.370;-0.486;2022-10-22T00:42:33;28.83;;;4.93;;
71423;SDS011;59240;51.370;-0.486;2022-10-22T00:47:36;24.13;;;3.63;;
71423;SDS011;59240;51.370;-0.486;2022-10-22T00:53:41;23.60;;;3.58;;
71423;SDS011;59240;51.370;-0.486;2022-10-22T00:56:10;26.67;;;3.72;;
71423;SDS011;59240;51.370;-0.486;2022-10-22T00:58:43;21.40;;;3.88;;
71423;SDS011;59240;51.370;-0.486;2022-10-22T01:01:13;25.48;;;4.05;;
71423;SDS011;59240;51.370;-0.486;2022-10-22T01:03:43;26.13;;;3.83;;
71423;SDS011;59240;51.370;-0.486;2022-10-22T01:06:11;24.83;;;4.03;;
71423;SDS011;59240;51.370;-0.486;2022-10-22T01:08:55;33.03;;;4.25;;
71423;SDS011;59240;51.370;-0.486;2022-10-22T01:18:04;27.85;;;4.00;;
71423;SDS011;59240;51.370;-0.486;2022-10-22T01:31:45;37.92;;;5.28;;
71423;SDS011;59240;51.370;-0.486;2022-10-22T01:34:18;27.58;;;3.67;;
71423;SDS011;59240;51.370;-0.486;2022-10-22T01:36:45;32.35;;;4.35;;
71423;SDS011;59240;51.370;-0.486;2022-10-22T01:39:13;28.85;;;3.75;;
71423;SDS011;59240;51.370;-0.486;2022-10-22T01:41:44;27.42;;;4.80;;
71423;SDS011;59240;51.370;-0.486;2022-10-22T01:44:24;41.33;;;4.78;;
71423;SDS011;59240;51.370;-0.486;2022-10-22T01:47:05;36.97;;;4.28;;
71423;SDS011;59240;51.370;-0.486;2022-10-22T01:52:58;33.85;;;4.60;;
71423;SDS011;59240;51.370;-0.486;2022-10-22T02:04:33;30.73;;;4.80;;
71423;SDS011;59240;51.370;-0.486;2022-10-22T02:07:06;33.80;;;6.22;;
71423;SDS011;59240;51.370;-0.486;2022-10-22T02:09:35;29.42;;;5.40;;
71423;SDS011;59240;51.370;-0.486;2022-10-22T02:12:03;23.83;;;4.97;;
71423;SDS011;59240;51.370;-0.486;2022-10-22T02:14:34;47.58;;;6.18;;
71423;SDS011;59240;51.370;-0.486;2022-10-22T02:17:03;31.88;;;4.22;;
71423;SDS011;59240;51.370;-0.486;2022-10-22T02:19:37;36.88;;;5.30;;
71423;SDS011;59240;51.370;-0.486;2022-10-22T02:22:05;35.65;;;4.95;;
71423;SDS011;59240;51.370;-0.486;2022-10-22T02:24:32;30.35;;;5.50;;
71423;SDS011;59240;51.370;-0.486;2022-10-22T02:30:15;30.98;;;5.47;;
71423;SDS011;59240;51.370;-0.486;2022-10-22T02:32:32;36.60;;;5.57;;
71423;SDS011;59240;51.370;-0.486;2022-10-22T02:35:03;43.75;;;5.32;;
71423;SDS011;59240;51.370;-0.486;2022-10-22T02:37:30;26.80;;;4.47;;
71423;SDS011;59240;51.370;-0.486;2022-10-22T02:39:57;31.58;;;4.30;;
71423;SDS011;59240;51.370;-0.486;2022-10-22T02:42:24;36.58;;;4.53;;
71423;SDS011;59240;51.370;-0.486;2022-10-22T02:44:53;31.63;;;4.25;;
71423;SDS011;59240;51.370;-0.486;2022-10-22T02:47:19;24.45;;;4.28;;
71423;SDS011;59240;51.370;-0.486;2022-10-22T02:49:46;25.52;;;3.75;;
71423;SDS011;59240;51.370;-0.486;2022-10-22T02:52:12;28.00;;;3.03;;
71423;SDS011;59240;51.370;-0.486;2022-10-22T02:54:39;17.20;;;2.70;;
71423;SDS011;59240;51.370;-0.486;2022-10-22T02:57:05;21.42;;;2.90;;
71423;SDS011;59240;51.370;-0.486;2022-10-22T02:59:32;19.25;;;2.78;;
71423;SDS011;59240;51.370;-0.486;2022-10-22T03:01:59;18.33;;;2.80;;
71423;SDS011;59240;51.370;-0.486;2022-10-22T03:04:25;18.40;;;3.05;;
71423;SDS011;59240;51.370;-0.486;2022-10-22T03:06:52;21.23;;;3.47;;
71423;SDS011;59240;51.370;-0.486;2022-10-22T03:09:18;22.52;;;2.97;;
71423;SDS011;59240;51.370;-0.486;2022-10-22T03:11:50;18.30;;;3.88;;
71423;SDS011;59240;51.370;-0.486;2022-10-22T03:14:17;22.50;;;3.42;;
71423;SDS011;59240;51.370;-0.486;2022-10-22T03:16:43;19.33;;;3.38;;
71423;SDS011;59240;51.370;-0.486;2022-10-22T03:19:10;14.35;;;2.40;;
71423;SDS011;59240;51.370;-0.486;2022-10-22T03:21:38;16.10;;;2.00;;
71423;SDS011;59240;51.370;-0.486;2022-10-22T03:24:11;17.20;;;2.55;;
71423;SDS011;59240;51.370;-0.486;2022-10-22T03:26:42;17.58;;;2.45;;
71423;SDS011;59240;51.370;-0.486;2022-10-22T03:29:12;21.38;;;2.65;;
71423;SDS011;59240;51.370;-0.486;2022-10-22T03:31:40;17.98;;;2.47;;
71423;SDS011;59240;51.370;-0.486;2022-10-22T03:34:07;16.27;;;2.22;;
71423;SDS011;59240;51.370;-0.486;2022-10-22T03:36:34;17.30;;;2.40;;
71423;SDS011;59240;51.370;-0.486;2022-10-22T03:39:00;17.55;;;2.55;;
71423;SDS011;59240;51.370;-0.486;2022-10-22T03:41:27;23.08;;;2.55;;
71423;SDS011;59240;51.370;-0.486;2022-10-22T03:43:54;18.73;;;2.67;;
71423;SDS011;59240;51.370;-0.486;2022-10-22T03:46:21;17.92;;;2.72;;
71423;SDS011;59240;51.370;-0.486;2022-10-22T03:48:47;20.48;;;2.60;;
71423;SDS011;59240;51.370;-0.486;2022-10-22T03:51:14;27.35;;;3.25;;
71423;SDS011;59240;51.370;-0.486;2022-10-22T03:53:40;18.33;;;2.67;;
71423;SDS011;59240;51.370;-0.486;2022-10-22T03:56:10;21.35;;;2.65;;
71423;SDS011;59240;51.370;-0.486;2022-10-22T03:58:38;20.05;;;2.83;;
71423;SDS011;59240;51.370;-0.486;2022-10-22T04:01:09;23.77;;;3.13;;
71423;SDS011;59240;51.370;-0.486;2022-10-22T04:03:38;20.00;;;2.80;;
71423;SDS011;59240;51.370;-0.486;2022-10-22T04:06:06;29.67;;;3.17;;
71423;SDS011;59240;51.370;-0.486;2022-10-22T04:08:35;21.42;;;3.00;;
71423;SDS011;59240;51.370;-0.486;2022-10-22T04:11:01;15.43;;;2.70;;
71423;SDS011;59240;51.370;-0.486;2022-10-22T04:13:28;22.60;;;2.95;;
71423;SDS011;59240;51.370;-0.486;2022-10-22T04:15:55;28.15;;;3.75;;
71423;SDS011;59240;51.370;-0.486;2022-10-22T04:18:21;33.47;;;3.03;;
71423;SDS011;59240;51.370;-0.486;2022-10-22T04:20:50;23.15;;;3.28;;
71423;SDS011;59240;51.370;-0.486;2022-10-22T04:23:17;21.42;;;3.20;;
71423;SDS011;59240;51.370;-0.486;2022-10-22T04:25:43;27.65;;;3.45;;
71423;SDS011;59240;51.370;-0.486;2022-10-22T04:28:10;24.02;;;3.40;;
71423;SDS011;59240;51.370;-0.486;2022-10-22T04:30:36;19.00;;;3.30;;
71423;SDS011;59240;51.370;-0.486;2022-10-22T04:33:03;29.77;;;3.67;;
71423;SDS011;59240;51.370;-0.486;2022-10-22T04:35:29;27.83;;;3.90;;
71423;SDS011;59240;51.370;-0.486;2022-10-22T04:37:56;26.38;;;3.90;;
71423;SDS011;59240;51.370;-0.486;2022-10-22T04:40:23;36.17;;;4.25;;
71423;SDS011;59240;51.370;-0.486;2022-10-22T04:42:49;48.85;;;4.93;;
71423;SDS011;59240;51.370;-0.486;2022-10-22T04:45:16;34.63;;;4.40;;
71423;SDS011;59240;51.370;-0.486;2022-10-22T04:47:42;21.83;;;4.43;;
71423;SDS011;59240;51.370;-0.486;2022-10-22T04:50:09;30.15;;;4.72;;
71423;SDS011;59240;51.370;-0.486;2022-10-22T04:52:35;29.85;;;4.07;;
71423;SDS011;59240;51.370;-0.486;2022-10-22T04:55:02;31.67;;;4.22;;
71423;SDS011;59240;51.370;-0.486;2022-10-22T04:57:29;31.85;;;4.07;;
71423;SDS011;59240;51.370;-0.486;2022-10-22T04:59:56;30.23;;;4.53;;
71423;SDS011;59240;51.370;-0.486;2022-10-22T05:02:23;27.85;;;3.95;;
71423;SDS011;59240;51.370;-0.486;2022-10-22T05:04:49;26.45;;;3.72;;
71423;SDS011;59240;51.370;-0.486;2022-10-22T05:07:17;37.00;;;3.83;;
71423;SDS011;59240;51.370;-0.486;2022-10-22T05:09:43;28.40;;;4.20;;
71423;SDS011;59240;51.370;-0.486;2022-10-22T05:12:10;28.77;;;3.92;;
71423;SDS011;59240;51.370;-0.486;2022-10-22T05:14:36;24.98;;;3.58;;
71423;SDS011;59240;51.370;-0.486;2022-10-22T05:17:09;27.67;;;3.50;;
71423;SDS011;59240;51.370;-0.486;2022-10-22T05:19:36;31.95;;;3.97;;
71423;SDS011;59240;51.370;-0.486;2022-10-22T05:22:03;28.00;;;3.75;;
71423;SDS011;59240;51.370;-0.486;2022-10-22T05:24:30;31.83;;;4.13;;
71423;SDS011;59240;51.370;-0.486;2022-10-22T05:26:59;27.98;;;4.05;;
71423;SDS011;59240;51.370;-0.486;2022-10-22T05:29:25;32.75;;;3.83;;
71423;SDS011;59240;51.370;-0.486;2022-10-22T05:31:53;47.42;;;4.60;;
71423;SDS011;59240;51.370;-0.486;2022-10-22T05:34:19;37.83;;;5.88;;
71423;SDS011;59240;51.370;-0.486;2022-10-22T05:36:46;39.20;;;10.50;;
71423;SDS011;59240;51.370;-0.486;2022-10-22T05:39:12;58.97;;;10.88;;
71423;SDS011;59240;51.370;-0.486;2022-10-22T05:41:39;46.90;;;12.73;;
71423;SDS011;59240;51.370;-0.486;2022-10-22T05:44:06;50.45;;;13.80;;
71423;SDS011;59240;51.370;-0.486;2022-10-22T05:46:34;61.72;;;14.35;;
71423;SDS011;59240;51.370;-0.486;2022-10-22T05:49:02;50.30;;;12.48;;
71423;SDS011;59240;51.370;-0.486;2022-10-22T05:51:31;61.55;;;12.43;;
71423;SDS011;59240;51.370;-0.486;2022-10-22T05:54:00;33.05;;;8.23;;
71423;SDS011;59240;51.370;-0.486;2022-10-22T05:56:29;47.78;;;9.20;;
71423;SDS011;59240;51.370;-0.486;2022-10-22T05:58:57;55.30;;;7.50;;
71423;SDS011;59240;51.370;-0.486;2022-10-22T06:01:25;28.65;;;5.93;;
71423;SDS011;59240;51.370;-0.486;2022-10-22T06:03:55;42.00;;;5.32;;
71423;SDS011;59240;51.370;-0.486;2022-10-22T06:06:30;36.75;;;4.97;;
71423;SDS011;59240;51.370;-0.486;2022-10-22T06:09:44;28.27;;;4.65;;
71423;SDS011;59240;51.370;-0.486;2022-10-22T06:11:50;36.17;;;4.40;;
71423;SDS011;59240;51.370;-0.486;2022-10-22T06:14:17;32.60;;;4.53;;
71423;SDS011;59240;51.370;-0.486;2022-10-22T06:16:44;35.83;;;4.70;;
71423;SDS011;59240;51.370;-0.486;2022-10-22T06:19:12;35.38;;;4.63;;
71423;SDS011;59240;51.370;-0.486;2022-10-22T06:21:40;27.27;;;5.28;;
71423;SDS011;59240;51.370;-0.486;2022-10-22T06:24:07;45.10;;;5.78;;
71423;SDS011;59240;51.370;-0.486;2022-10-22T06:26:35;41.38;;;5.03;;
71423;SDS011;59240;51.370;-0.486;2022-10-22T06:29:02;40.47;;;5.10;;
71423;SDS011;59240;51.370;-0.486;2022-10-22T06:31:29;41.97;;;5.47;;
71423;SDS011;59240;51.370;-0.486;2022-10-22T06:34:02;42.92;;;5.47;;
71423;SDS011;59240;51.370;-0.486;2022-10-22T06:36:30;34.65;;;5.18;;
71423;SDS011;59240;51.370;-0.486;2022-10-22T06:38:57;37.85;;;5.80;;
71423;SDS011;59240;51.370;-0.486;2022-10-22T06:41:24;40.10;;;5.40;;
71423;SDS011;59240;51.370;-0.486;2022-10-22T06:43:54;39.22;;;5.53;;
71423;SDS011;59240;51.370;-0.486;2022-10-22T06:46:23;39.55;;;5.50;;
71423;SDS011;59240;51.370;-0.486;2022-10-22T06:48:51;44.72;;;6.80;;
71423;SDS011;59240;51.370;-0.486;2022-10-22T06:51:22;41.55;;;6.40;;
71423;SDS011;59240;51.370;-0.486;2022-10-22T06:53:49;49.67;;;5.85;;
71423;SDS011;59240;51.370;-0.486;2022-10-22T06:56:16;33.45;;;5.30;;
71423;SDS011;59240;51.370;-0.486;2022-10-22T06:58:48;64.68;;;7.60;;
71423;SDS011;59240;51.370;-0.486;2022-10-22T07:01:17;50.83;;;7.00;;
71423;SDS011;59240;51.370;-0.486;2022-10-22T07:03:45;48.30;;;7.05;;
71423;SDS011;59240;51.370;-0.486;2022-10-22T07:06:12;41.30;;;6.13;;
71423;SDS011;59240;51.370;-0.486;2022-10-22T07:08:40;37.20;;;6.63;;
71423;SDS011;59240;51.370;-0.486;2022-10-22T07:11:08;39.08;;;6.43;;
71423;SDS011;59240;51.370;-0.486;2022-10-22T07:13:37;41.67;;;6.57;;
71423;SDS011;59240;51.370;-0.486;2022-10-22T07:16:05;48.03;;;6.63;;
71423;SDS011;59240;51.370;-0.486;2022-10-22T07:18:33;46.60;;;5.97;;
71423;SDS011;59240;51.370;-0.486;2022-10-22T07:21:00;44.83;;;5.97;;
71423;SDS011;59240;51.370;-0.486;2022-10-22T07:23:27;46.13;;;6.75;;
71423;SDS011;59240;51.370;-0.486;2022-10-22T07:25:54;32.80;;;5.65;;
71423;SDS011;59240;51.370;-0.486;2022-10-22T07:28:26;42.78;;;5.70;;
71423;SDS011;59240;51.370;-0.486;2022-10-22T07:30:53;45.45;;;6.13;;
71423;SDS011;59240;51.370;-0.486;2022-10-22T07:33:20;51.00;;;6.68;;
71423;SDS011;59240;51.370;-0.486;2022-10-22T07:35:47;45.40;;;5.57;;
71423;SDS011;59240;51.370;-0.486;2022-10-22T07:38:13;41.00;;;5.13;;
71423;SDS011;59240;51.370;-0.486;2022-10-22T07:40:40;41.30;;;5.13;;
71423;SDS011;59240;51.370;-0.486;2022-10-22T07:43:06;37.88;;;5.78;;
71423;SDS011;59240;51.370;-0.486;2022-10-22T07:45:33;32.50;;;5.13;;
71423;SDS011;59240;51.370;-0.486;2022-10-22T07:47:59;38.13;;;5.43;;
71423;SDS011;59240;51.370;-0.486;2022-10-22T07:50:26;42.55;;;4.75;;
71423;SDS011;59240;51.370;-0.486;2022-10-22T07:52:53;46.25;;;4.78;;
71423;SDS011;59240;51.370;-0.486;2022-10-22T07:55:23;43.00;;;5.88;;
71423;SDS011;59240;51.370;-0.486;2022-10-22T07:57:50;41.20;;;5.50;;
71423;SDS011;59240;51.370;-0.486;2022-10-22T08:00:16;49.50;;;5.40;;
71423;SDS011;59240;51.370;-0.486;2022-10-22T08:02:48;38.53;;;5.03;;
71423;SDS011;59240;51.370;-0.486;2022-10-22T08:05:14;32.35;;;5.05;;
71423;SDS011;59240;51.370;-0.486;2022-10-22T08:07:41;34.72;;;4.93;;
71423;SDS011;59240;51.370;-0.486;2022-10-22T08:10:09;41.88;;;5.53;;
71423;SDS011;59240;51.370;-0.486;2022-10-22T08:12:37;33.63;;;5.03;;
71423;SDS011;59240;51.370;-0.486;2022-10-22T08:15:05;41.53;;;5.10;;
71423;SDS011;59240;51.370;-0.486;2022-10-22T08:17:32;36.80;;;5.15;;
71423;SDS011;59240;51.370;-0.486;2022-10-22T08:19:59;39.20;;;5.00;;
71423;SDS011;59240;51.370;-0.486;2022-10-22T08:22:25;36.70;;;4.72;;
71423;SDS011;59240;51.370;-0.486;2022-10-22T08:24:52;40.05;;;4.95;;
71423;SDS011;59240;51.370;-0.486;2022-10-22T08:27:18;33.50;;;4.90;;
71423;SDS011;59240;51.370;-0.486;2022-10-22T08:29:45;28.73;;;4.65;;
71423;SDS011;59240;51.370;-0.486;2022-10-22T08:32:12;40.90;;;5.53;;
71423;SDS011;59240;51.370;-0.486;2022-10-22T08:34:38;34.13;;;4.55;;
71423;SDS011;59240;51.370;-0.486;2022-10-22T08:37:05;34.83;;;4.85;;
71423;SDS011;59240;51.370;-0.486;2022-10-22T08:39:33;38.10;;;5.00;;
71423;SDS011;59240;51.370;-0.486;2022-10-22T08:50:41;32.53;;;4.47;;
71423;SDS011;59240;51.370;-0.486;2022-10-22T08:53:12;38.90;;;4.75;;
71423;SDS011;59240;51.370;-0.486;2022-10-22T08:55:43;38.30;;;4.75;;
71423;SDS011;59240;51.370;-0.486;2022-10-22T08:58:14;30.95;;;4.60;;
71423;SDS011;59240;51.370;-0.486;2022-10-22T09:03:35;28.92;;;4.03;;
71423;SDS011;59240;51.370;-0.486;2022-10-22T09:06:12;34.50;;;4.45;;
71423;SDS011;59240;51.370;-0.486;2022-10-22T09:08:41;37.25;;;5.40;;
71423;SDS011;59240;51.370;-0.486;2022-10-22T09:13:39;32.05;;;5.03;;
71423;SDS011;59240;51.370;-0.486;2022-10-22T09:18:51;26.83;;;4.60;;
71423;SDS011;59240;51.370;-0.486;2022-10-22T09:21:37;31.90;;;4.55;;
71423;SDS011;59240;51.370;-0.486;2022-10-22T09:24:20;28.13;;;5.13;;
71423;SDS011;59240;51.370;-0.486;2022-10-22T09:27:00;31.17;;;5.18;;
71423;SDS011;59240;51.370;-0.486;2022-10-22T09:29:31;21.85;;;5.00;;
71423;SDS011;59240;51.370;-0.486;2022-10-22T09:31:59;23.40;;;4.25;;
71423;SDS011;59240;51.370;-0.486;2022-10-22T09:34:25;23.67;;;4.40;;
71423;SDS011;59240;51.370;-0.486;2022-10-22T09:37:01;24.50;;;4.40;;
71423;SDS011;59240;51.370;-0.486;2022-10-22T09:39:31;19.70;;;3.72;;
71423;SDS011;59240;51.370;-0.486;2022-10-22T09:42:00;31.05;;;4.57;;
71423;SDS011;59240;51.370;-0.486;2022-10-22T09:44:26;21.48;;;4.30;;
71423;SDS011;59240;51.370;-0.486;2022-10-22T09:46:53;19.92;;;3.55;;
71423;SDS011;59240;51.370;-0.486;2022-10-22T09:49:23;22.48;;;3.88;;
71423;SDS011;59240;51.370;-0.486;2022-10-22T09:51:56;25.65;;;4.18;;
71423;SDS011;59240;51.370;-0.486;2022-10-22T09:54:25;26.45;;;4.65;;
71423;SDS011;59240;51.370;-0.486;2022-10-22T09:57:05;18.15;;;3.80;;
71423;SDS011;59240;51.370;-0.486;2022-10-22T09:59:43;20.85;;;4.10;;
71423;SDS011;59240;51.370;-0.486;2022-10-22T10:05:04;25.05;;;4.10;;
71423;SDS011;59240;51.370;-0.486;2022-10-22T10:07:32;19.85;;;3.85;;
71423;SDS011;59240;51.370;-0.486;2022-10-22T10:10:00;21.10;;;4.22;;
71423;SDS011;59240;51.370;-0.486;2022-10-22T10:12:42;29.08;;;4.85;;
71423;SDS011;59240;51.370;-0.486;2022-10-22T10:15:28;27.92;;;4.43;;
71423;SDS011;59240;51.370;-0.486;2022-10-22T10:23:27;19.00;;;3.92;;
71423;SDS011;59240;51.370;-0.486;2022-10-22T10:26:14;23.17;;;4.10;;
71423;SDS011;59240;51.370;-0.486;2022-10-22T10:34:01;20.00;;;4.05;;
71423;SDS011;59240;51.370;-0.486;2022-10-22T10:36:41;59.15;;;6.13;;
71423;SDS011;59240;51.370;-0.486;2022-10-22T10:39:11;25.83;;;4.43;;
71423;SDS011;59240;51.370;-0.486;2022-10-22T10:41:58;25.58;;;4.47;;
71423;SDS011;59240;51.370;-0.486;2022-10-22T10:50:39;22.58;;;4.28;;
71423;SDS011;59240;51.370;-0.486;2022-10-22T10:53:16;20.48;;;4.07;;
71423;SDS011;59240;51.370;-0.486;2022-10-22T10:58:57;18.48;;;3.95;;
71423;SDS011;59240;51.370;-0.486;2022-10-22T11:07:59;24.38;;;4.03;;
71423;SDS011;59240;51.370;-0.486;2022-10-22T11:10:49;17.70;;;4.07;;
71423;SDS011;59240;51.370;-0.486;2022-10-22T11:13:21;17.95;;;3.97;;
71423;SDS011;59240;51.370;-0.486;2022-10-22T11:15:57;20.20;;;3.55;;
71423;SDS011;59240;51.370;-0.486;2022-10-22T11:18:34;18.15;;;4.13;;
71423;SDS011;59240;51.370;-0.486;2022-10-22T11:21:17;20.88;;;4.32;;
71423;SDS011;59240;51.370;-0.486;2022-10-22T11:24:15;19.27;;;4.85;;
71423;SDS011;59240;51.370;-0.486;2022-10-22T11:26:55;17.13;;;4.03;;
71423;SDS011;59240;51.370;-0.486;2022-10-22T11:29:29;20.45;;;4.00;;
71423;SDS011;59240;51.370;-0.486;2022-10-22T11:32:00;22.13;;;3.83;;
71423;SDS011;59240;51.370;-0.486;2022-10-22T11:34:39;26.08;;;4.75;;
71423;SDS011;59240;51.370;-0.486;2022-10-22T11:37:19;26.52;;;4.90;;
71423;SDS011;59240;51.370;-0.486;2022-10-22T11:40:02;19.10;;;4.10;;
71423;SDS011;59240;51.370;-0.486;2022-10-22T11:45:00;20.23;;;4.13;;
71423;SDS011;59240;51.370;-0.486;2022-10-22T11:48:18;21.17;;;3.95;;
71423;SDS011;59240;51.370;-0.486;2022-10-22T11:50:23;19.23;;;3.38;;
71423;SDS011;59240;51.370;-0.486;2022-10-22T11:55:55;17.42;;;3.42;;
71423;SDS011;59240;51.370;-0.486;2022-10-22T12:00:51;15.73;;;3.30;;
71423;SDS011;59240;51.370;-0.486;2022-10-22T12:03:22;16.30;;;3.28;;
71423;SDS011;59240;51.370;-0.486;2022-10-22T12:13:56;19.33;;;3.60;;
71423;SDS011;59240;51.370;-0.486;2022-10-22T12:19:23;14.88;;;3.35;;
71423;SDS011;59240;51.370;-0.486;2022-10-22T12:21:51;13.27;;;2.60;;
71423;SDS011;59240;51.370;-0.486;2022-10-22T12:24:21;13.70;;;2.95;;
71423;SDS011;59240;51.370;-0.486;2022-10-22T12:26:49;13.07;;;2.90;;
71423;SDS011;59240;51.370;-0.486;2022-10-22T12:29:19;13.27;;;2.88;;
71423;SDS011;59240;51.370;-0.486;2022-10-22T12:31:51;14.35;;;2.80;;
71423;SDS011;59240;51.370;-0.486;2022-10-22T12:34:20;13.43;;;2.90;;
71423;SDS011;59240;51.370;-0.486;2022-10-22T12:36:49;15.85;;;3.47;;
71423;SDS011;59240;51.370;-0.486;2022-10-22T12:39:19;13.32;;;2.75;;
71423;SDS011;59240;51.370;-0.486;2022-10-22T12:41:51;17.40;;;2.90;;
71423;SDS011;59240;51.370;-0.486;2022-10-22T12:44:19;11.70;;;2.60;;
71423;SDS011;59240;51.370;-0.486;2022-10-22T12:46:46;11.88;;;2.78;;
71423;SDS011;59240;51.370;-0.486;2022-10-22T12:49:21;16.58;;;3.13;;
71423;SDS011;59240;51.370;-0.486;2022-10-22T12:51:54;12.93;;;2.50;;
71423;SDS011;59240;51.370;-0.486;2022-10-22T12:54:26;16.48;;;3.05;;
71423;SDS011;59240;51.370;-0.486;2022-10-22T12:56:59;14.10;;;2.85;;
71423;SDS011;59240;51.370;-0.486;2022-10-22T12:59:27;14.38;;;2.50;;
71423;SDS011;59240;51.370;-0.486;2022-10-22T13:02:00;15.02;;;3.20;;
71423;SDS011;59240;51.370;-0.486;2022-10-22T13:04:31;15.23;;;2.60;;
71423;SDS011;59240;51.370;-0.486;2022-10-22T13:07:05;14.20;;;2.92;;
71423;SDS011;59240;51.370;-0.486;2022-10-22T13:12:33;18.13;;;2.85;;
71423;SDS011;59240;51.370;-0.486;2022-10-22T13:18:06;16.77;;;2.85;;
71423;SDS011;59240;51.370;-0.486;2022-10-22T13:20:52;13.43;;;2.90;;
71423;SDS011;59240;51.370;-0.486;2022-10-22T13:23:24;15.32;;;3.20;;
71423;SDS011;59240;51.370;-0.486;2022-10-22T13:28:29;13.80;;;2.53;;
71423;SDS011;59240;51.370;-0.486;2022-10-22T13:30:58;14.73;;;2.42;;
71423;SDS011;59240;51.370;-0.486;2022-10-22T13:33:33;9.68;;;2.75;;
71423;SDS011;59240;51.370;-0.486;2022-10-22T13:36:02;12.27;;;2.42;;
71423;SDS011;59240;51.370;-0.486;2022-10-22T13:38:30;12.63;;;2.22;;
71423;SDS011;59240;51.370;-0.486;2022-10-22T13:40:57;12.93;;;2.28;;
71423;SDS011;59240;51.370;-0.486;2022-10-22T13:43:24;12.30;;;2.70;;
71423;SDS011;59240;51.370;-0.486;2022-10-22T13:45:52;14.10;;;2.42;;
71423;SDS011;59240;51.370;-0.486;2022-10-22T13:48:23;12.80;;;2.47;;
71423;SDS011;59240;51.370;-0.486;2022-10-22T13:50:58;11.82;;;2.58;;
71423;SDS011;59240;51.370;-0.486;2022-10-22T13:53:26;10.75;;;2.08;;
71423;SDS011;59240;51.370;-0.486;2022-10-22T13:55:58;12.30;;;2.38;;
71423;SDS011;59240;51.370;-0.486;2022-10-22T13:58:28;10.77;;;2.15;;
71423;SDS011;59240;51.370;-0.486;2022-10-22T14:00:58;15.90;;;2.65;;
71423;SDS011;59240;51.370;-0.486;2022-10-22T14:03:39;11.77;;;2.47;;
71423;SDS011;59240;51.370;-0.486;2022-10-22T14:06:09;10.82;;;2.60;;
71423;SDS011;59240;51.370;-0.486;2022-10-22T14:08:45;17.70;;;2.95;;
71423;SDS011;59240;51.370;-0.486;2022-10-22T14:11:16;10.07;;;2.13;;
71423;SDS011;59240;51.370;-0.486;2022-10-22T14:13:46;14.63;;;3.53;;
71423;SDS011;59240;51.370;-0.486;2022-10-22T14:16:20;12.02;;;2.60;;
71423;SDS011;59240;51.370;-0.486;2022-10-22T14:18:50;13.68;;;2.50;;
71423;SDS011;59240;51.370;-0.486;2022-10-22T14:21:18;16.88;;;2.83;;
71423;SDS011;59240;51.370;-0.486;2022-10-22T14:23:47;13.95;;;2.83;;
71423;SDS011;59240;51.370;-0.486;2022-10-22T14:26:23;16.52;;;2.72;;
71423;SDS011;59240;51.370;-0.486;2022-10-22T14:29:01;9.82;;;2.50;;
71423;SDS011;59240;51.370;-0.486;2022-10-22T14:31:37;17.73;;;2.65;;
71423;SDS011;59240;51.370;-0.486;2022-10-22T14:34:14;21.05;;;3.78;;
71423;SDS011;59240;51.370;-0.486;2022-10-22T14:36:41;14.55;;;3.10;;
71423;SDS011;59240;51.370;-0.486;2022-10-22T14:39:09;16.60;;;2.80;;
71423;SDS011;59240;51.370;-0.486;2022-10-22T14:41:37;14.95;;;3.53;;
71423;SDS011;59240;51.370;-0.486;2022-10-22T14:44:06;17.00;;;3.47;;
71423;SDS011;59240;51.370;-0.486;2022-10-22T14:46:40;15.70;;;3.63;;
71423;SDS011;59240;51.370;-0.486;2022-10-22T14:49:09;20.15;;;2.95;;
71423;SDS011;59240;51.370;-0.486;2022-10-22T14:51:35;13.80;;;3.10;;
71423;SDS011;59240;51.370;-0.486;2022-10-22T14:54:02;19.67;;;2.72;;
71423;SDS011;59240;51.370;-0.486;2022-10-22T14:56:32;15.85;;;3.13;;
71423;SDS011;59240;51.370;-0.486;2022-10-22T14:58:59;16.20;;;3.22;;
71423;SDS011;59240;51.370;-0.486;2022-10-22T15:01:25;20.23;;;2.80;;
71423;SDS011;59240;51.370;-0.486;2022-10-22T15:03:52;13.10;;;3.00;;
71423;SDS011;59240;51.370;-0.486;2022-10-22T15:06:19;15.23;;;3.50;;
71423;SDS011;59240;51.370;-0.486;2022-10-22T15:08:48;15.00;;;2.92;;
71423;SDS011;59240;51.370;-0.486;2022-10-22T15:11:15;14.65;;;2.88;;
71423;SDS011;59240;51.370;-0.486;2022-10-22T15:13:43;16.17;;;3.10;;
71423;SDS011;59240;51.370;-0.486;2022-10-22T15:16:11;13.32;;;2.78;;
71423;SDS011;59240;51.370;-0.486;2022-10-22T15:18:47;18.55;;;3.28;;
71423;SDS011;59240;51.370;-0.486;2022-10-22T15:21:20;16.38;;;3.50;;
71423;SDS011;59240;51.370;-0.486;2022-10-22T15:23:48;15.05;;;3.35;;
71423;SDS011;59240;51.370;-0.486;2022-10-22T15:26:21;11.80;;;2.88;;
71423;SDS011;59240;51.370;-0.486;2022-10-22T15:29:05;18.27;;;4.00;;
71423;SDS011;59240;51.370;-0.486;2022-10-22T15:31:45;15.98;;;3.45;;
71423;SDS011;59240;51.370;-0.486;2022-10-22T15:34:22;15.55;;;2.97;;
71423;SDS011;59240;51.370;-0.486;2022-10-22T15:36:52;15.18;;;3.88;;
71423;SDS011;59240;51.370;-0.486;2022-10-22T15:39:20;18.88;;;3.80;;
71423;SDS011;59240;51.370;-0.486;2022-10-22T15:41:47;19.40;;;3.45;;
71423;SDS011;59240;51.370;-0.486;2022-10-22T15:44:17;19.63;;;4.15;;
71423;SDS011;59240;51.370;-0.486;2022-10-22T15:46:49;17.00;;;3.28;;
71423;SDS011;59240;51.370;-0.486;2022-10-22T15:49:22;15.85;;;3.75;;
71423;SDS011;59240;51.370;-0.486;2022-10-22T15:51:49;18.10;;;3.47;;
71423;SDS011;59240;51.370;-0.486;2022-10-22T15:54:17;19.70;;;4.03;;
71423;SDS011;59240;51.370;-0.486;2022-10-22T15:56:50;16.50;;;3.20;;
71423;SDS011;59240;51.370;-0.486;2022-10-22T15:59:17;18.90;;;3.67;;
71423;SDS011;59240;51.370;-0.486;2022-10-22T16:01:49;15.48;;;3.53;;
71423;SDS011;59240;51.370;-0.486;2022-10-22T16:04:17;15.20;;;3.38;;
71423;SDS011;59240;51.370;-0.486;2022-10-22T16:06:50;18.65;;;3.47;;
71423;SDS011;59240;51.370;-0.486;2022-10-22T16:09:24;24.92;;;3.70;;
71423;SDS011;59240;51.370;-0.486;2022-10-22T16:11:56;18.45;;;3.42;;
71423;SDS011;59240;51.370;-0.486;2022-10-22T16:14:26;19.23;;;3.33;;
71423;SDS011;59240;51.370;-0.486;2022-10-22T16:16:54;15.77;;;3.10;;
71423;SDS011;59240;51.370;-0.486;2022-10-22T16:19:22;17.20;;;3.47;;
71423;SDS011;59240;51.370;-0.486;2022-10-22T16:21:52;20.52;;;2.90;;
71423;SDS011;59240;51.370;-0.486;2022-10-22T16:24:21;22.85;;;3.95;;
71423;SDS011;59240;51.370;-0.486;2022-10-22T16:26:48;19.10;;;3.40;;
71423;SDS011;59240;51.370;-0.486;2022-10-22T16:29:16;19.35;;;3.38;;